Bookmark and Share
Track history (hours):
 

Stolt Effort

Last reported at 2014-Apr-23 01:18 UTC. Time now 2014-Apr-23 15:05 UTC.
Position N 34°17' W 076°07'.

Length 176 m; draft 9.6 m.

Type: Ship (hazmat cat A). MMSI: 319445000.

NotesDate/timePositionNaut miles runAvg speedWind from/ knotsBaromVisibWave heightAir tempDewpointWater temp
2014-Apr-23 01:18N 34°17' W 076°07'1013.4
2014-Apr-23 00:34N 34°23' W 075°57'1413.4
2014-Apr-22 23:32N 34°31' W 075°44'8412.0
2014-Apr-22 16:33N 35°32' W 074°33'1312.0
2014-Apr-22 15:28N 35°42' W 074°24'10112.2
2014-Apr-22 07:11N 37°19' W 073°47'12814.5
2014-Apr-21 22:20N 39°26' W 073°24'1414.1
2014-Apr-21 21:22N 39°40' W 073°21'1214.4
2014-Apr-21 20:34N 39°51' W 073°20'1413.6
2014-Apr-21 19:32N 40°04' W 073°26'3210.8
2014-Apr-21 16:32N 40°29' W 073°54'1010.0
2014-Apr-21 15:33N 40°36' W 074°03'6 5.9
2014-Apr-21 14:33N 40°39' W 074°09'3 2.4
2014-Apr-21 13:24N 40°42' W 074°08'0 0.0
2014-Apr-21 12:30N 40°42' W 074°08'0 0.0
2014-Apr-21 11:18N 40°42' W 074°08'0 0.0
2014-Apr-21 10:30N 40°42' W 074°08'0 0.0
2014-Apr-20 21:33N 40°42' W 074°08'3 3.0
2014-Apr-20 20:32N 40°39' W 074°09'2 2.3
2014-Apr-20 19:32N 40°39' W 074°06'0 0.0
2014-Apr-20 18:32N 40°39' W 074°06'0 0.0
2014-Apr-20 17:32N 40°39' W 074°06'0 0.0
2014-Apr-20 16:32N 40°39' W 074°06'0 0.0
2014-Apr-20 15:32N 40°39' W 074°06'0 0.0
2014-Apr-20 14:32N 40°39' W 074°06'0 0.0
2014-Apr-20 13:32N 40°39' W 074°06'0 0.0
2014-Apr-20 12:32N 40°39' W 074°06'0 0.0
2014-Apr-20 11:32N 40°39' W 074°06'0 0.3
2014-Apr-20 10:32N 40°39' W 074°06'0 0.2
2014-Apr-20 09:32N 40°39' W 074°07'0 0.0
2014-Apr-20 08:32N 40°39' W 074°07'0 0.0
2014-Apr-20 07:32N 40°39' W 074°07'0 0.0
2014-Apr-20 06:32N 40°39' W 074°07'0 0.0
2014-Apr-20 05:32N 40°39' W 074°07'0 0.0
2014-Apr-20 04:32N 40°39' W 074°07'0 0.0
2014-Apr-20 03:32N 40°39' W 074°07'0 0.0
2014-Apr-20 02:32N 40°39' W 074°07'0 0.0
2014-Apr-20 01:32N 40°39' W 074°07'0 0.0
2014-Apr-20 00:32N 40°39' W 074°07'0 0.0
2014-Apr-19 23:32N 40°39' W 074°07'0 0.0
2014-Apr-19 22:32N 40°39' W 074°07'0 0.0
2014-Apr-19 21:32N 40°39' W 074°07'0 0.0
2014-Apr-19 20:32N 40°39' W 074°07'0 0.0
2014-Apr-19 19:29N 40°39' W 074°07'0 0.0
2014-Apr-19 18:29N 40°39' W 074°07'0 0.0
2014-Apr-19 17:32N 40°39' W 074°07'0 0.0
2014-Apr-19 16:32N 40°39' W 074°07'0 0.0
2014-Apr-19 15:32N 40°39' W 074°07'0 0.5
2014-Apr-19 14:33N 40°39' W 074°06'2 1.6
2014-Apr-19 13:32N 40°38' W 074°04'0 0.1
2014-Apr-19 12:32N 40°38' W 074°04'0 0.0
2014-Apr-19 11:32N 40°38' W 074°04'0 0.2
2014-Apr-19 10:32N 40°38' W 074°04'1 1.1
2014-Apr-19 09:33N 40°39' W 074°05'0 0.3
2014-Apr-19 08:25N 40°39' W 074°05'0 0.0
2014-Apr-19 07:22N 40°39' W 074°05'0 0.0
2014-Apr-19 06:31N 40°39' W 074°05'0 0.0
2014-Apr-19 05:31N 40°39' W 074°05'0 0.0
2014-Apr-19 04:31N 40°39' W 074°05'0 0.0
2014-Apr-19 03:31N 40°39' W 074°05'0 0.0
2014-Apr-19 02:31N 40°39' W 074°05'0 0.0
2014-Apr-19 01:25N 40°39' W 074°05'0 0.0
2014-Apr-19 00:31N 40°39' W 074°05'0 0.0
2014-Apr-18 23:31N 40°39' W 074°05'0 0.0
2014-Apr-18 22:31N 40°39' W 074°05'0 0.0
2014-Apr-18 21:31N 40°39' W 074°05'0 0.0
2014-Apr-18 20:31N 40°39' W 074°05'0 0.0
2014-Apr-18 19:31N 40°39' W 074°05'0 0.0
2014-Apr-18 18:31N 40°39' W 074°05'0 0.0
2014-Apr-18 17:28N 40°39' W 074°05'0 0.0
2014-Apr-18 16:31N 40°39' W 074°05'0 0.0
2014-Apr-18 15:31N 40°39' W 074°05'0 0.0
2014-Apr-18 14:25N 40°39' W 074°05'1 1.7
2014-Apr-18 13:33N 40°39' W 074°03'8 8.0
2014-Apr-18 12:33N 40°31' W 073°59'1010.0
2014-Apr-18 11:33N 40°27' W 073°48'5 5.4
2014-Apr-18 10:33N 40°23' W 073°42'6 6.5
2014-Apr-18 09:33N 40°20' W 073°35'7 6.8
2014-Apr-18 08:34N 40°15' W 073°28'7 6.9
2014-Apr-18 07:31N 40°11' W 073°21'7 7.2
2014-Apr-18 06:33N 40°07' W 073°14'7 7.3
2014-Apr-18 05:34N 40°02' W 073°06'9 8.4
2014-Apr-18 04:32N 39°57' W 072°58'9 9.1
2014-Apr-18 03:33N 39°51' W 072°48'9 9.3
2014-Apr-18 02:34N 39°47' W 072°38'9 9.3
2014-Apr-18 01:32N 39°41' W 072°28'11 9.0
2014-Apr-18 00:20N 39°34' W 072°17'34 8.3
2014-Apr-17 20:13N 39°13' W 071°42'7 8.4
2014-Apr-17 19:21N 39°09' W 071°35'810.1
2014-Apr-17 18:31N 39°04' W 071°26'13 9.7
2014-Apr-17 17:08N 38°60' W 071°10'710.2
2014-Apr-17 16:25N 38°59' W 071°00'910.4
2014-Apr-17 15:33N 38°58' W 070°49'  

Dump ship's entire track history

sailing weather and tide predictions

Stolt Effort — ZCSP6 — position and weather